SondeTracker

Meteorological Radiosondes Database

Operations

Sounding was ended - last measurement: 2022-12-07 12:40:58z

MAP
About Radiosonde

Number: D22036703 ([BC]22036703)

Launch Site: Peachtree City [GA] (US)

Type: DFM

AUX: NO

Frequency: MHz

Max Speed: 146 km/h at 13037 m

Average Speed: 112.18 km/h

Max Altitude: 19790 m

Average Ascent Speed: 3.82 m/s

Average Descent Speed: 0.00 m/s

Status: UNKNOWN

Status Changes
Launch Site Type AUX Frequency Status Finder Landing Point Description Changes made by
APRS Statistics

Received Frames: 68

First Frame [UTC]: 2022-12-07 12:01:58z

Last Frame [UTC]: 2022-12-07 12:40:58z

Receivers: W4DEX-14

Flight Time: 00:39:00 h

Distance From First Measurement: 54.11 km

Nearest City: Milledgeville [GA] (US) [33.82 km]

Nearest Hunter: Ceer123 [94.79 km]

Ground Altitude: 160 m

Distance from QTH: 0.00 km

APRS Data
Receiver Number Date/Time [UTC] φ λ Course [°] Speed [km/h] Altitude [m] Description
W4DEX-14D220367032022-12-07 12:40:5833.1294-83.6011853919790Clb=4.7m/s Type=DFM17 ser=[BC]22036703 Details on http://radiosondy.info
W4DEX-14D220367032022-12-07 12:40:2833.1295-83.6027913719717Clb=5.6m/s Type=DFM17 ser=[BC]22036703 Details on http://radiosondy.info
W4DEX-14D220367032022-12-07 12:39:5233.1297-83.60431023719634Clb=4.8m/s Type=DFM17 ser=[BC]22036703 Details on http://radiosondy.info
W4DEX-14D220367032022-12-07 12:39:1333.13-83.60591043719559Clb=5.0m/s Type=DFM17 ser=[BC]22036703 Details on http://radiosondy.info
W4DEX-14D220367032022-12-07 12:38:3733.1303-83.6075933019476Clb=5.4m/s Type=DFM17 ser=[BC]22036703 Details on http://radiosondy.info
W4DEX-14D220367032022-12-07 12:38:0133.1306-83.60881345219354Clb=4.4m/s Type=DFM17 ser=[BC]22036703 Details on http://radiosondy.info
W4DEX-14D220367032022-12-07 12:33:0533.1341-83.6276958018688Clb=4.5m/s Type=DFM17 ser=[BC]22036703 Details on http://radiosondy.info
W4DEX-14D220367032022-12-07 12:31:4433.1358-83.63551149118527Clb=5.2m/s Type=DFM17 ser=[BC]22036703 Details on http://radiosondy.info
W4DEX-14D220367032022-12-07 12:28:1133.1435-83.657111610918184Clb=3.8m/s Type=DFM17 ser=[BC]22036703 Details on http://radiosondy.info
W4DEX-14D220367032022-12-07 12:27:0133.145-83.665310110718051Clb=4.4m/s Type=DFM17 ser=[BC]22036703 Details on http://radiosondy.info
W4DEX-14D220367032022-12-07 12:26:1533.1455-83.67149610617949Clb=5.7m/s Type=DFM17 ser=[BC]22036703 Details on http://radiosondy.info
W4DEX-14D220367032022-12-07 12:25:4133.146-83.6761989617847Clb=4.3m/s Type=DFM17 ser=[BC]22036703 Details on http://radiosondy.info
W4DEX-14D220367032022-12-07 12:24:5733.1465-83.681999817804Clb=5.2m/s Type=DFM17 ser=[BC]22036703 Details on http://radiosondy.info
W4DEX-14D220367032022-12-07 12:24:1633.1472-83.685710310217696Clb=2.7m/s Type=DFM17 ser=[BC]22036703 Details on http://radiosondy.info
W4DEX-14D220367032022-12-07 12:23:5433.148-83.690110110617641Clb=3.6m/s Type=DFM17 ser=[BC]22036703 Details on http://radiosondy.info
W4DEX-14D220367032022-12-07 12:23:5133.1487-83.69479910217566Clb=5.4m/s Type=DFM17 ser=[BC]22036703 Details on http://radiosondy.info
W4DEX-14D220367032022-12-07 12:23:3433.1493-83.69921029817471Clb=6.0m/s Type=DFM17 ser=[BC]22036703 Details on http://radiosondy.info
W4DEX-14D220367032022-12-07 12:23:1033.1499-83.70351029617417Clb=4.5m/s Type=DFM17 ser=[BC]22036703 Details on http://radiosondy.info
W4DEX-14D220367032022-12-07 12:22:5433.1507-83.70771019617346Clb=4.6m/s Type=DFM17 ser=[BC]22036703 Details on http://radiosondy.info
W4DEX-14D220367032022-12-07 12:22:5033.1517-83.711811310617268Clb=5.0m/s Type=DFM17 ser=[BC]22036703 Details on http://radiosondy.info
W4DEX-14D220367032022-12-07 12:22:4533.1531-83.716611310717206Clb=3.0m/s Type=DFM17 ser=[BC]22036703 Details on http://radiosondy.info
W4DEX-14D220367032022-12-07 12:22:2333.1544-83.721111410417147Clb=3.5m/s Type=DFM17 ser=[BC]22036703 Details on http://radiosondy.info
W4DEX-14D220367032022-12-07 12:21:3433.1852-83.884711011114417Clb=5.1m/s Type=DFM17 ser=[BC]22036703 Details on http://radiosondy.info
W4DEX-14D220367032022-12-07 12:21:0433.1866-83.889411011514356Clb=5.1m/s Type=DFM17 ser=[BC]22036703 Details on http://radiosondy.info
W4DEX-14D220367032022-12-07 12:20:3033.188-83.894211612014290Clb=3.2m/s Type=DFM17 ser=[BC]22036703 Details on http://radiosondy.info
W4DEX-14D220367032022-12-07 12:19:5833.1899-83.899111513114223Clb=3.6m/s Type=DFM17 ser=[BC]22036703 Details on http://radiosondy.info
W4DEX-14D220367032022-12-07 12:19:2233.1919-83.904511713314157Clb=2.9m/s Type=DFM17 ser=[BC]22036703 Details on http://radiosondy.info
W4DEX-14D220367032022-12-07 12:18:4933.1936-83.910110813714088Clb=4.4m/s Type=DFM17 ser=[BC]22036703 Details on http://radiosondy.info
W4DEX-14D220367032022-12-07 12:18:1533.1952-83.915910914314021Clb=4.8m/s Type=DFM17 ser=[BC]22036703 Details on http://radiosondy.info
W4DEX-14D220367032022-12-07 12:17:4633.1971-83.921811013913950Clb=4.4m/s Type=DFM17 ser=[BC]22036703 Details on http://radiosondy.info
W4DEX-14D220367032022-12-07 12:17:1533.1988-83.927710913313881Clb=5.1m/s Type=DFM17 ser=[BC]22036703 Details on http://radiosondy.info
W4DEX-14D220367032022-12-07 12:16:4833.2004-83.933410813713807Clb=4.8m/s Type=DFM17 ser=[BC]22036703 Details on http://radiosondy.info
W4DEX-14D220367032022-12-07 12:16:2033.2018-83.939210613513736Clb=4.8m/s Type=DFM17 ser=[BC]22036703 Details on http://radiosondy.info
W4DEX-14D220367032022-12-07 12:15:5433.2032-83.94510413913663Clb=6.2m/s Type=DFM17 ser=[BC]22036703 Details on http://radiosondy.info
W4DEX-14D220367032022-12-07 12:15:2733.2047-83.950910613713590Clb=4.4m/s Type=DFM17 ser=[BC]22036703 Details on http://radiosondy.info
W4DEX-14D220367032022-12-07 12:14:5933.2063-83.956710813313513Clb=5.6m/s Type=DFM17 ser=[BC]22036703 Details on http://radiosondy.info
W4DEX-14D220367032022-12-07 12:14:2933.208-83.962210913113439Clb=3.9m/s Type=DFM17 ser=[BC]22036703 Details on http://radiosondy.info
W4DEX-14D220367032022-12-07 12:14:0233.2099-83.967711613313373Clb=5.3m/s Type=DFM17 ser=[BC]22036703 Details on http://radiosondy.info
W4DEX-14D220367032022-12-07 12:13:3333.212-83.973111313713303Clb=3.3m/s Type=DFM17 ser=[BC]22036703 Details on http://radiosondy.info
W4DEX-14D220367032022-12-07 12:12:5733.2142-83.978711314413238Clb=4.0m/s Type=DFM17 ser=[BC]22036703 Details on http://radiosondy.info
W4DEX-14D220367032022-12-07 12:12:2233.2165-83.984412114613172Clb=4.4m/s Type=DFM17 ser=[BC]22036703 Details on http://radiosondy.info
W4DEX-14D220367032022-12-07 12:11:4933.2191-83.990211814413105Clb=3.8m/s Type=DFM17 ser=[BC]22036703 Details on http://radiosondy.info
W4DEX-14D220367032022-12-07 12:11:1633.2216-83.995911714613037Clb=2.6m/s Type=DFM17 ser=[BC]22036703 Details on http://radiosondy.info
W4DEX-14D220367032022-12-07 12:10:4433.2241-84.001611513912967Clb=5.8m/s Type=DFM17 ser=[BC]22036703 Details on http://radiosondy.info
W4DEX-14D220367032022-12-07 12:10:0533.2263-84.007211413512900Clb=3.9m/s Type=DFM17 ser=[BC]22036703 Details on http://radiosondy.info
W4DEX-14D220367032022-12-07 12:09:3233.2287-84.012611513512831Clb=4.7m/s Type=DFM17 ser=[BC]22036703 Details on http://radiosondy.info
W4DEX-14D220367032022-12-07 12:08:5833.231-84.01811513512767Clb=4.3m/s Type=DFM17 ser=[BC]22036703 Details on http://radiosondy.info
W4DEX-14D220367032022-12-07 12:08:2433.2332-84.023411813312696Clb=5.2m/s Type=DFM17 ser=[BC]22036703 Details on http://radiosondy.info
W4DEX-14D220367032022-12-07 12:07:5233.2354-84.028811713512631Clb=5.2m/s Type=DFM17 ser=[BC]22036703 Details on http://radiosondy.info
W4DEX-14D220367032022-12-07 12:07:1933.2376-84.034211812812564Clb=5.8m/s Type=DFM17 ser=[BC]22036703 Details on http://radiosondy.info
W4DEX-14D220367032022-12-07 12:06:5033.2396-84.039411612612496Clb=5.4m/s Type=DFM17 ser=[BC]22036703 Details on http://radiosondy.info
W4DEX-14D220367032022-12-07 12:06:1733.2415-84.044511812412431Clb=5.2m/s Type=DFM17 ser=[BC]22036703 Details on http://radiosondy.info
W4DEX-14D220367032022-12-07 12:05:4533.2434-84.049511711912368Clb=3.8m/s Type=DFM17 ser=[BC]22036703 Details on http://radiosondy.info
W4DEX-14D220367032022-12-07 12:05:1233.2452-84.054411212212305Clb=4.5m/s Type=DFM17 ser=[BC]22036703 Details on http://radiosondy.info
W4DEX-14D220367032022-12-07 12:04:4133.247-84.059411111512240Clb=5.4m/s Type=DFM17 ser=[BC]22036703 Details on http://radiosondy.info
W4DEX-14D220367032022-12-07 12:04:0733.2485-84.064211311512173Clb=4.9m/s Type=DFM17 ser=[BC]22036703 Details on http://radiosondy.info
W4DEX-14D220367032022-12-07 12:03:5033.25-84.06911111512108Clb=3.7m/s Type=DFM17 ser=[BC]22036703 Details on http://radiosondy.info
W4DEX-14D220367032022-12-07 12:03:4333.2516-84.073811311512044Clb=5.4m/s Type=DFM17 ser=[BC]22036703 Details on http://radiosondy.info
W4DEX-14D220367032022-12-07 12:03:2733.2531-84.078611011711981Clb=4.1m/s Type=DFM17 ser=[BC]22036703 Details on http://radiosondy.info
W4DEX-14D220367032022-12-07 12:03:0933.2547-84.083511911711913Clb=4.9m/s Type=DFM17 ser=[BC]22036703 Details on http://radiosondy.info
W4DEX-14D220367032022-12-07 12:02:5333.2677-84.124310910711301Clb=4.0m/s Type=DFM17 ser=[BC]22036703 Details on http://radiosondy.info
W4DEX-14D220367032022-12-07 12:02:5233.2691-84.128711110711235Clb=3.7m/s Type=DFM17 ser=[BC]22036703 Details on http://radiosondy.info
W4DEX-14D220367032022-12-07 12:02:5033.2705-84.133211310911167Clb=3.0m/s Type=DFM17 ser=[BC]22036703 Details on http://radiosondy.info
W4DEX-14D220367032022-12-07 12:02:4933.2718-84.137811110411102Clb=4.6m/s Type=DFM17 ser=[BC]22036703 Details on http://radiosondy.info
W4DEX-14D220367032022-12-07 12:02:3633.273-84.142211210411036Clb=5.1m/s Type=DFM17 ser=[BC]22036703 Details on http://radiosondy.info
W4DEX-14D220367032022-12-07 12:02:1533.2743-84.146511310410971Clb=3.2m/s Type=DFM17 ser=[BC]22036703 Details on http://radiosondy.info
W4DEX-14D220367032022-12-07 12:02:0033.2758-84.150811410610907Clb=3.9m/s Type=DFM Details on http://radiosondy.info
W4DEX-14D220367032022-12-07 12:01:5833.2772-84.155211410210840Clb=4.5m/s Type=DFM Details on http://radiosondy.info